sensor_id;sensor_type;location;lat;lon;timestamp;P1;durP1;ratioP1;P2;durP2;ratioP2
9420;SDS011;4749;51.398;5.466;2022-12-18T00:04:07;52.97;;;28.07;;
9420;SDS011;4749;51.398;5.466;2022-12-18T00:07:10;51.60;;;27.83;;
9420;SDS011;4749;51.398;5.466;2022-12-18T00:09:56;51.70;;;27.90;;
9420;SDS011;4749;51.398;5.466;2022-12-18T00:12:29;47.43;;;27.87;;
9420;SDS011;4749;51.398;5.466;2022-12-18T00:16:00;48.57;;;28.47;;
9420;SDS011;4749;51.398;5.466;2022-12-18T00:19:38;43.07;;;24.63;;
9420;SDS011;4749;51.398;5.466;2022-12-18T00:22:51;47.43;;;27.43;;
9420;SDS011;4749;51.398;5.466;2022-12-18T00:29:40;51.60;;;26.90;;
9420;SDS011;4749;51.398;5.466;2022-12-18T00:32:30;46.87;;;26.00;;
9420;SDS011;4749;51.398;5.466;2022-12-18T00:35:28;52.20;;;27.53;;
9420;SDS011;4749;51.398;5.466;2022-12-18T00:41:41;49.13;;;27.33;;
9420;SDS011;4749;51.398;5.466;2022-12-18T00:47:17;50.17;;;28.03;;
9420;SDS011;4749;51.398;5.466;2022-12-18T00:49:48;49.43;;;26.37;;
9420;SDS011;4749;51.398;5.466;2022-12-18T00:52:25;51.33;;;28.90;;
9420;SDS011;4749;51.398;5.466;2022-12-18T00:55:00;52.40;;;28.20;;
9420;SDS011;4749;51.398;5.466;2022-12-18T00:57:55;49.23;;;27.30;;
9420;SDS011;4749;51.398;5.466;2022-12-18T01:00:46;49.97;;;27.47;;
9420;SDS011;4749;51.398;5.466;2022-12-18T01:03:20;45.23;;;27.00;;
9420;SDS011;4749;51.398;5.466;2022-12-18T01:06:08;48.20;;;28.33;;
9420;SDS011;4749;51.398;5.466;2022-12-18T01:08:40;50.97;;;27.63;;
9420;SDS011;4749;51.398;5.466;2022-12-18T01:11:14;49.17;;;27.17;;
9420;SDS011;4749;51.398;5.466;2022-12-18T01:13:45;49.93;;;28.20;;
9420;SDS011;4749;51.398;5.466;2022-12-18T01:16:14;45.73;;;28.17;;
9420;SDS011;4749;51.398;5.466;2022-12-18T01:18:46;52.03;;;27.73;;
9420;SDS011;4749;51.398;5.466;2022-12-18T01:21:14;48.63;;;27.27;;
9420;SDS011;4749;51.398;5.466;2022-12-18T01:23:44;47.47;;;26.60;;
9420;SDS011;4749;51.398;5.466;2022-12-18T01:26:15;47.27;;;27.47;;
9420;SDS011;4749;51.398;5.466;2022-12-18T01:28:48;47.33;;;27.10;;
9420;SDS011;4749;51.398;5.466;2022-12-18T01:31:27;47.43;;;27.23;;
9420;SDS011;4749;51.398;5.466;2022-12-18T01:34:00;46.73;;;25.80;;
9420;SDS011;4749;51.398;5.466;2022-12-18T01:36:29;47.63;;;26.43;;
9420;SDS011;4749;51.398;5.466;2022-12-18T01:39:00;49.83;;;27.10;;
9420;SDS011;4749;51.398;5.466;2022-12-18T01:41:32;45.27;;;26.23;;
9420;SDS011;4749;51.398;5.466;2022-12-18T01:53:14;50.00;;;27.87;;
9420;SDS011;4749;51.398;5.466;2022-12-18T01:55:48;44.00;;;26.27;;
9420;SDS011;4749;51.398;5.466;2022-12-18T02:01:28;43.60;;;25.63;;
9420;SDS011;4749;51.398;5.466;2022-12-18T02:04:16;48.67;;;27.63;;
9420;SDS011;4749;51.398;5.466;2022-12-18T02:06:46;48.07;;;27.57;;
9420;SDS011;4749;51.398;5.466;2022-12-18T02:09:33;47.43;;;26.47;;
9420;SDS011;4749;51.398;5.466;2022-12-18T02:12:35;48.70;;;26.83;;
9420;SDS011;4749;51.398;5.466;2022-12-18T02:15:44;45.30;;;25.67;;
9420;SDS011;4749;51.398;5.466;2022-12-18T02:18:28;46.20;;;25.60;;
9420;SDS011;4749;51.398;5.466;2022-12-18T02:27:02;44.17;;;24.83;;
9420;SDS011;4749;51.398;5.466;2022-12-18T02:29:44;43.10;;;24.97;;
9420;SDS011;4749;51.398;5.466;2022-12-18T02:32:25;39.93;;;24.43;;
9420;SDS011;4749;51.398;5.466;2022-12-18T02:35:00;48.73;;;25.70;;
9420;SDS011;4749;51.398;5.466;2022-12-18T02:37:30;46.23;;;25.83;;
9420;SDS011;4749;51.398;5.466;2022-12-18T02:40:01;42.97;;;24.23;;
9420;SDS011;4749;51.398;5.466;2022-12-18T02:42:31;39.77;;;24.63;;
9420;SDS011;4749;51.398;5.466;2022-12-18T02:44:59;43.57;;;25.03;;
9420;SDS011;4749;51.398;5.466;2022-12-18T02:47:29;43.13;;;25.10;;
9420;SDS011;4749;51.398;5.466;2022-12-18T02:50:07;47.77;;;25.40;;
9420;SDS011;4749;51.398;5.466;2022-12-18T02:53:17;45.10;;;24.93;;
9420;SDS011;4749;51.398;5.466;2022-12-18T02:56:06;42.27;;;24.37;;
9420;SDS011;4749;51.398;5.466;2022-12-18T02:58:52;42.83;;;24.67;;
9420;SDS011;4749;51.398;5.466;2022-12-18T03:04:32;44.73;;;24.23;;
9420;SDS011;4749;51.398;5.466;2022-12-18T03:07:18;41.67;;;24.30;;
9420;SDS011;4749;51.398;5.466;2022-12-18T03:09:52;43.00;;;24.13;;
9420;SDS011;4749;51.398;5.466;2022-12-18T03:12:30;39.47;;;22.90;;
9420;SDS011;4749;51.398;5.466;2022-12-18T03:17:46;38.93;;;21.93;;
9420;SDS011;4749;51.398;5.466;2022-12-18T03:20:38;40.67;;;23.13;;
9420;SDS011;4749;51.398;5.466;2022-12-18T03:23:09;40.67;;;22.87;;
9420;SDS011;4749;51.398;5.466;2022-12-18T03:25:42;37.77;;;21.97;;
9420;SDS011;4749;51.398;5.466;2022-12-18T03:28:13;35.40;;;22.47;;
9420;SDS011;4749;51.398;5.466;2022-12-18T03:30:46;39.40;;;22.87;;
9420;SDS011;4749;51.398;5.466;2022-12-18T03:33:24;35.57;;;21.13;;
9420;SDS011;4749;51.398;5.466;2022-12-18T03:36:02;36.90;;;21.87;;
9420;SDS011;4749;51.398;5.466;2022-12-18T03:38:30;35.87;;;21.77;;
9420;SDS011;4749;51.398;5.466;2022-12-18T03:43:53;35.27;;;21.47;;
9420;SDS011;4749;51.398;5.466;2022-12-18T03:46:33;35.47;;;20.83;;
9420;SDS011;4749;51.398;5.466;2022-12-18T03:53:24;31.80;;;19.30;;
9420;SDS011;4749;51.398;5.466;2022-12-18T03:56:10;34.00;;;20.47;;
9420;SDS011;4749;51.398;5.466;2022-12-18T03:58:40;34.70;;;20.73;;
9420;SDS011;4749;51.398;5.466;2022-12-18T04:01:10;29.60;;;19.13;;
9420;SDS011;4749;51.398;5.466;2022-12-18T04:03:41;33.67;;;20.57;;
9420;SDS011;4749;51.398;5.466;2022-12-18T04:06:11;34.97;;;19.80;;
9420;SDS011;4749;51.398;5.466;2022-12-18T04:08:39;33.60;;;20.43;;
9420;SDS011;4749;51.398;5.466;2022-12-18T04:11:08;34.87;;;19.93;;
9420;SDS011;4749;51.398;5.466;2022-12-18T04:13:35;34.70;;;20.13;;
9420;SDS011;4749;51.398;5.466;2022-12-18T04:16:05;37.07;;;20.53;;
9420;SDS011;4749;51.398;5.466;2022-12-18T04:18:33;36.67;;;18.97;;
9420;SDS011;4749;51.398;5.466;2022-12-18T04:21:00;30.47;;;18.37;;
9420;SDS011;4749;51.398;5.466;2022-12-18T04:23:28;32.70;;;19.43;;
9420;SDS011;4749;51.398;5.466;2022-12-18T04:25:55;35.27;;;19.90;;
9420;SDS011;4749;51.398;5.466;2022-12-18T04:28:23;31.53;;;18.83;;
9420;SDS011;4749;51.398;5.466;2022-12-18T04:30:50;36.90;;;20.80;;
9420;SDS011;4749;51.398;5.466;2022-12-18T04:33:17;35.27;;;20.20;;
9420;SDS011;4749;51.398;5.466;2022-12-18T04:35:44;33.50;;;19.63;;
9420;SDS011;4749;51.398;5.466;2022-12-18T04:38:11;32.03;;;19.10;;
9420;SDS011;4749;51.398;5.466;2022-12-18T04:40:38;31.40;;;18.80;;
9420;SDS011;4749;51.398;5.466;2022-12-18T04:43:07;33.77;;;18.93;;
9420;SDS011;4749;51.398;5.466;2022-12-18T04:45:34;29.60;;;18.10;;
9420;SDS011;4749;51.398;5.466;2022-12-18T04:48:01;29.97;;;18.07;;
9420;SDS011;4749;51.398;5.466;2022-12-18T04:50:30;29.93;;;18.43;;
9420;SDS011;4749;51.398;5.466;2022-12-18T04:52:57;31.77;;;18.23;;
9420;SDS011;4749;51.398;5.466;2022-12-18T04:55:24;30.27;;;18.67;;
9420;SDS011;4749;51.398;5.466;2022-12-18T04:57:52;26.63;;;18.13;;
9420;SDS011;4749;51.398;5.466;2022-12-18T05:00:19;31.83;;;18.00;;
9420;SDS011;4749;51.398;5.466;2022-12-18T05:02:47;32.50;;;19.23;;
9420;SDS011;4749;51.398;5.466;2022-12-18T05:05:14;31.23;;;18.30;;
9420;SDS011;4749;51.398;5.466;2022-12-18T05:07:41;28.60;;;17.37;;
9420;SDS011;4749;51.398;5.466;2022-12-18T05:10:08;28.67;;;17.23;;
9420;SDS011;4749;51.398;5.466;2022-12-18T05:12:36;28.47;;;18.10;;
9420;SDS011;4749;51.398;5.466;2022-12-18T05:15:26;30.77;;;17.80;;
9420;SDS011;4749;51.398;5.466;2022-12-18T05:17:58;26.27;;;17.27;;
9420;SDS011;4749;51.398;5.466;2022-12-18T05:20:26;28.00;;;17.70;;
9420;SDS011;4749;51.398;5.466;2022-12-18T05:22:54;27.80;;;17.80;;
9420;SDS011;4749;51.398;5.466;2022-12-18T05:25:22;28.83;;;17.43;;
9420;SDS011;4749;51.398;5.466;2022-12-18T05:27:50;32.03;;;17.17;;
9420;SDS011;4749;51.398;5.466;2022-12-18T05:30:17;28.87;;;17.63;;
9420;SDS011;4749;51.398;5.466;2022-12-18T05:32:44;28.57;;;16.63;;
9420;SDS011;4749;51.398;5.466;2022-12-18T05:35:11;28.53;;;17.37;;
9420;SDS011;4749;51.398;5.466;2022-12-18T05:37:38;28.83;;;16.93;;
9420;SDS011;4749;51.398;5.466;2022-12-18T05:40:08;27.97;;;17.20;;
9420;SDS011;4749;51.398;5.466;2022-12-18T05:42:37;25.67;;;16.23;;
9420;SDS011;4749;51.398;5.466;2022-12-18T05:45:04;30.17;;;16.90;;
9420;SDS011;4749;51.398;5.466;2022-12-18T05:47:32;28.07;;;16.73;;
9420;SDS011;4749;51.398;5.466;2022-12-18T05:49:59;26.07;;;16.40;;
9420;SDS011;4749;51.398;5.466;2022-12-18T05:52:26;29.97;;;16.93;;
9420;SDS011;4749;51.398;5.466;2022-12-18T05:54:53;28.13;;;16.50;;
9420;SDS011;4749;51.398;5.466;2022-12-18T05:57:20;26.37;;;16.27;;
9420;SDS011;4749;51.398;5.466;2022-12-18T05:59:47;28.00;;;16.97;;
9420;SDS011;4749;51.398;5.466;2022-12-18T06:02:15;30.20;;;17.13;;
9420;SDS011;4749;51.398;5.466;2022-12-18T06:04:42;24.47;;;16.17;;
9420;SDS011;4749;51.398;5.466;2022-12-18T06:07:09;27.60;;;17.33;;
9420;SDS011;4749;51.398;5.466;2022-12-18T06:09:36;27.90;;;16.10;;
9420;SDS011;4749;51.398;5.466;2022-12-18T06:12:03;29.53;;;16.63;;
9420;SDS011;4749;51.398;5.466;2022-12-18T06:14:30;27.47;;;16.67;;
9420;SDS011;4749;51.398;5.466;2022-12-18T06:16:57;25.57;;;16.37;;
9420;SDS011;4749;51.398;5.466;2022-12-18T06:19:24;26.20;;;16.27;;
9420;SDS011;4749;51.398;5.466;2022-12-18T06:21:51;28.80;;;17.43;;
9420;SDS011;4749;51.398;5.466;2022-12-18T06:24:19;26.93;;;16.50;;
9420;SDS011;4749;51.398;5.466;2022-12-18T06:26:46;29.43;;;18.10;;
9420;SDS011;4749;51.398;5.466;2022-12-18T06:29:13;29.97;;;18.63;;
9420;SDS011;4749;51.398;5.466;2022-12-18T06:31:40;24.63;;;16.07;;
9420;SDS011;4749;51.398;5.466;2022-12-18T06:34:07;28.43;;;17.03;;
9420;SDS011;4749;51.398;5.466;2022-12-18T06:36:34;29.90;;;17.83;;
9420;SDS011;4749;51.398;5.466;2022-12-18T06:39:02;28.50;;;17.30;;
9420;SDS011;4749;51.398;5.466;2022-12-18T06:41:29;31.23;;;17.93;;
9420;SDS011;4749;51.398;5.466;2022-12-18T06:43:58;30.43;;;17.87;;
9420;SDS011;4749;51.398;5.466;2022-12-18T06:46:26;32.43;;;18.60;;
9420;SDS011;4749;51.398;5.466;2022-12-18T06:48:53;28.47;;;17.73;;
9420;SDS011;4749;51.398;5.466;2022-12-18T06:51:20;29.73;;;17.50;;
9420;SDS011;4749;51.398;5.466;2022-12-18T06:53:49;30.20;;;17.40;;
9420;SDS011;4749;51.398;5.466;2022-12-18T06:56:17;28.33;;;16.40;;
9420;SDS011;4749;51.398;5.466;2022-12-18T06:58:44;28.30;;;16.50;;
9420;SDS011;4749;51.398;5.466;2022-12-18T07:01:11;31.10;;;18.03;;
9420;SDS011;4749;51.398;5.466;2022-12-18T07:03:40;27.73;;;17.03;;
9420;SDS011;4749;51.398;5.466;2022-12-18T07:06:16;28.07;;;17.43;;
9420;SDS011;4749;51.398;5.466;2022-12-18T07:08:46;33.03;;;19.03;;
9420;SDS011;4749;51.398;5.466;2022-12-18T07:11:14;29.23;;;16.87;;
9420;SDS011;4749;51.398;5.466;2022-12-18T07:13:43;29.53;;;17.63;;
9420;SDS011;4749;51.398;5.466;2022-12-18T07:16:12;26.67;;;16.87;;
9420;SDS011;4749;51.398;5.466;2022-12-18T07:18:50;27.17;;;17.37;;
9420;SDS011;4749;51.398;5.466;2022-12-18T07:21:19;29.67;;;16.77;;
9420;SDS011;4749;51.398;5.466;2022-12-18T07:23:48;28.90;;;18.10;;
9420;SDS011;4749;51.398;5.466;2022-12-18T07:26:16;27.23;;;17.67;;
9420;SDS011;4749;51.398;5.466;2022-12-18T07:28:46;30.63;;;17.80;;
9420;SDS011;4749;51.398;5.466;2022-12-18T07:31:15;31.73;;;18.37;;
9420;SDS011;4749;51.398;5.466;2022-12-18T07:33:47;30.37;;;17.87;;
9420;SDS011;4749;51.398;5.466;2022-12-18T07:36:16;30.53;;;18.13;;
9420;SDS011;4749;51.398;5.466;2022-12-18T07:38:46;32.03;;;18.30;;
9420;SDS011;4749;51.398;5.466;2022-12-18T07:41:14;32.47;;;18.37;;
9420;SDS011;4749;51.398;5.466;2022-12-18T07:43:42;30.77;;;17.60;;
9420;SDS011;4749;51.398;5.466;2022-12-18T07:46:10;30.73;;;19.03;;
9420;SDS011;4749;51.398;5.466;2022-12-18T07:48:42;30.73;;;19.07;;
9420;SDS011;4749;51.398;5.466;2022-12-18T07:51:15;31.30;;;19.13;;
9420;SDS011;4749;51.398;5.466;2022-12-18T07:53:43;33.27;;;20.10;;
9420;SDS011;4749;51.398;5.466;2022-12-18T07:56:14;30.63;;;19.10;;
9420;SDS011;4749;51.398;5.466;2022-12-18T07:58:57;33.47;;;19.30;;
9420;SDS011;4749;51.398;5.466;2022-12-18T08:01:26;30.07;;;18.97;;
9420;SDS011;4749;51.398;5.466;2022-12-18T08:03:53;31.27;;;19.67;;
9420;SDS011;4749;51.398;5.466;2022-12-18T08:06:21;31.87;;;19.40;;
9420;SDS011;4749;51.398;5.466;2022-12-18T08:08:53;32.33;;;19.33;;
9420;SDS011;4749;51.398;5.466;2022-12-18T08:11:22;32.87;;;19.77;;
9420;SDS011;4749;51.398;5.466;2022-12-18T08:13:52;33.53;;;18.60;;
9420;SDS011;4749;51.398;5.466;2022-12-18T08:16:20;34.77;;;19.87;;
9420;SDS011;4749;51.398;5.466;2022-12-18T08:18:51;30.43;;;19.30;;
9420;SDS011;4749;51.398;5.466;2022-12-18T08:21:20;35.30;;;20.07;;
9420;SDS011;4749;51.398;5.466;2022-12-18T08:23:54;28.20;;;18.17;;
9420;SDS011;4749;51.398;5.466;2022-12-18T08:26:29;29.03;;;18.80;;
9420;SDS011;4749;51.398;5.466;2022-12-18T08:29:00;33.07;;;19.57;;
9420;SDS011;4749;51.398;5.466;2022-12-18T08:31:28;30.10;;;18.80;;
9420;SDS011;4749;51.398;5.466;2022-12-18T08:34:12;32.10;;;20.00;;
9420;SDS011;4749;51.398;5.466;2022-12-18T08:36:39;34.80;;;18.17;;
9420;SDS011;4749;51.398;5.466;2022-12-18T08:39:07;30.90;;;19.23;;
9420;SDS011;4749;51.398;5.466;2022-12-18T08:41:43;29.70;;;18.20;;
9420;SDS011;4749;51.398;5.466;2022-12-18T08:44:55;30.83;;;18.17;;
9420;SDS011;4749;51.398;5.466;2022-12-18T08:47:23;32.87;;;18.60;;
9420;SDS011;4749;51.398;5.466;2022-12-18T08:49:52;31.50;;;19.13;;
9420;SDS011;4749;51.398;5.466;2022-12-18T08:52:19;30.47;;;18.07;;
9420;SDS011;4749;51.398;5.466;2022-12-18T08:54:47;33.87;;;19.23;;
9420;SDS011;4749;51.398;5.466;2022-12-18T08:57:14;29.50;;;18.87;;
9420;SDS011;4749;51.398;5.466;2022-12-18T08:59:42;31.00;;;19.37;;
9420;SDS011;4749;51.398;5.466;2022-12-18T09:02:10;30.17;;;17.33;;
9420;SDS011;4749;51.398;5.466;2022-12-18T09:04:38;32.60;;;18.43;;
9420;SDS011;4749;51.398;5.466;2022-12-18T09:07:06;30.80;;;18.77;;
9420;SDS011;4749;51.398;5.466;2022-12-18T09:09:33;31.50;;;19.03;;
9420;SDS011;4749;51.398;5.466;2022-12-18T09:12:01;31.17;;;18.93;;
9420;SDS011;4749;51.398;5.466;2022-12-18T09:14:28;31.00;;;18.33;;
9420;SDS011;4749;51.398;5.466;2022-12-18T09:16:58;29.50;;;18.23;;
9420;SDS011;4749;51.398;5.466;2022-12-18T09:19:29;28.37;;;17.70;;
9420;SDS011;4749;51.398;5.466;2022-12-18T09:22:09;30.30;;;16.73;;
9420;SDS011;4749;51.398;5.466;2022-12-18T09:24:52;32.43;;;18.93;;
9420;SDS011;4749;51.398;5.466;2022-12-18T09:27:52;29.77;;;17.70;;
9420;SDS011;4749;51.398;5.466;2022-12-18T09:30:26;30.13;;;17.20;;
9420;SDS011;4749;51.398;5.466;2022-12-18T09:33:08;29.47;;;16.07;;
9420;SDS011;4749;51.398;5.466;2022-12-18T09:35:41;30.40;;;16.70;;
9420;SDS011;4749;51.398;5.466;2022-12-18T09:39:12;30.23;;;17.20;;
9420;SDS011;4749;51.398;5.466;2022-12-18T09:41:42;28.87;;;17.03;;
9420;SDS011;4749;51.398;5.466;2022-12-18T09:44:39;27.77;;;16.20;;
9420;SDS011;4749;51.398;5.466;2022-12-18T09:47:30;29.17;;;16.73;;
9420;SDS011;4749;51.398;5.466;2022-12-18T09:50:31;29.97;;;17.07;;
9420;SDS011;4749;51.398;5.466;2022-12-18T09:53:06;30.00;;;17.03;;
9420;SDS011;4749;51.398;5.466;2022-12-18T09:55:42;26.80;;;15.57;;
9420;SDS011;4749;51.398;5.466;2022-12-18T09:58:57;30.03;;;16.60;;
9420;SDS011;4749;51.398;5.466;2022-12-18T10:01:35;32.00;;;16.93;;
9420;SDS011;4749;51.398;5.466;2022-12-18T10:04:09;31.00;;;16.87;;
9420;SDS011;4749;51.398;5.466;2022-12-18T10:09:37;28.97;;;16.27;;
9420;SDS011;4749;51.398;5.466;2022-12-18T10:12:30;31.20;;;17.30;;
9420;SDS011;4749;51.398;5.466;2022-12-18T10:15:07;28.67;;;16.27;;
9420;SDS011;4749;51.398;5.466;2022-12-18T10:20:52;33.33;;;17.70;;
9420;SDS011;4749;51.398;5.466;2022-12-18T10:23:41;30.97;;;17.07;;
9420;SDS011;4749;51.398;5.466;2022-12-18T10:26:31;32.00;;;17.67;;
9420;SDS011;4749;51.398;5.466;2022-12-18T10:29:04;32.57;;;18.87;;
9420;SDS011;4749;51.398;5.466;2022-12-18T10:31:42;32.63;;;18.20;;
9420;SDS011;4749;51.398;5.466;2022-12-18T10:34:10;33.50;;;17.87;;
9420;SDS011;4749;51.398;5.466;2022-12-18T10:36:44;33.03;;;18.50;;
9420;SDS011;4749;51.398;5.466;2022-12-18T10:39:21;29.87;;;17.83;;
9420;SDS011;4749;51.398;5.466;2022-12-18T10:42:08;31.43;;;17.07;;
9420;SDS011;4749;51.398;5.466;2022-12-18T10:44:43;29.43;;;16.70;;
9420;SDS011;4749;51.398;5.466;2022-12-18T10:48:22;30.70;;;16.77;;
9420;SDS011;4749;51.398;5.466;2022-12-18T10:51:10;30.10;;;17.30;;
9420;SDS011;4749;51.398;5.466;2022-12-18T10:54:33;33.07;;;17.77;;
9420;SDS011;4749;51.398;5.466;2022-12-18T10:57:36;33.40;;;17.67;;
9420;SDS011;4749;51.398;5.466;2022-12-18T11:00:27;29.27;;;16.10;;
9420;SDS011;4749;51.398;5.466;2022-12-18T11:03:02;31.23;;;17.80;;
9420;SDS011;4749;51.398;5.466;2022-12-18T11:05:49;31.47;;;16.87;;
9420;SDS011;4749;51.398;5.466;2022-12-18T11:08:37;32.47;;;18.10;;
9420;SDS011;4749;51.398;5.466;2022-12-18T11:11:39;31.23;;;18.17;;
9420;SDS011;4749;51.398;5.466;2022-12-18T11:14:06;27.97;;;16.63;;
9420;SDS011;4749;51.398;5.466;2022-12-18T11:16:55;27.63;;;16.17;;
9420;SDS011;4749;51.398;5.466;2022-12-18T11:19:44;31.03;;;16.93;;
9420;SDS011;4749;51.398;5.466;2022-12-18T11:22:19;31.33;;;17.13;;
9420;SDS011;4749;51.398;5.466;2022-12-18T11:25:30;28.43;;;16.57;;
9420;SDS011;4749;51.398;5.466;2022-12-18T11:27:59;26.03;;;15.17;;
9420;SDS011;4749;51.398;5.466;2022-12-18T11:30:46;28.03;;;16.53;;
9420;SDS011;4749;51.398;5.466;2022-12-18T11:33:19;31.03;;;16.13;;
9420;SDS011;4749;51.398;5.466;2022-12-18T11:38:28;28.03;;;15.67;;
9420;SDS011;4749;51.398;5.466;2022-12-18T11:40:59;29.97;;;16.43;;
9420;SDS011;4749;51.398;5.466;2022-12-18T11:43:40;28.03;;;16.83;;
9420;SDS011;4749;51.398;5.466;2022-12-18T11:46:33;25.03;;;15.00;;
9420;SDS011;4749;51.398;5.466;2022-12-18T11:49:12;25.53;;;15.77;;
9420;SDS011;4749;51.398;5.466;2022-12-18T11:52:42;27.83;;;15.77;;
9420;SDS011;4749;51.398;5.466;2022-12-18T11:54:51;26.90;;;15.00;;
9420;SDS011;4749;51.398;5.466;2022-12-18T12:00:18;28.37;;;16.10;;
9420;SDS011;4749;51.398;5.466;2022-12-18T12:09:17;24.90;;;15.80;;
9420;SDS011;4749;51.398;5.466;2022-12-18T12:15:10;27.27;;;15.93;;
9420;SDS011;4749;51.398;5.466;2022-12-18T12:24:24;28.67;;;17.43;;
9420;SDS011;4749;51.398;5.466;2022-12-18T12:27:32;28.53;;;16.07;;
9420;SDS011;4749;51.398;5.466;2022-12-18T12:30:07;27.60;;;15.87;;
9420;SDS011;4749;51.398;5.466;2022-12-18T12:32:53;28.20;;;17.20;;
9420;SDS011;4749;51.398;5.466;2022-12-18T12:36:06;28.87;;;16.77;;
9420;SDS011;4749;51.398;5.466;2022-12-18T12:38:53;29.93;;;15.70;;
9420;SDS011;4749;51.398;5.466;2022-12-18T12:41:27;26.40;;;16.13;;
9420;SDS011;4749;51.398;5.466;2022-12-18T12:44:19;26.33;;;16.50;;
9420;SDS011;4749;51.398;5.466;2022-12-18T12:46:56;26.17;;;15.90;;
9420;SDS011;4749;51.398;5.466;2022-12-18T12:49:40;28.97;;;16.03;;
9420;SDS011;4749;51.398;5.466;2022-12-18T12:52:20;26.57;;;15.90;;
9420;SDS011;4749;51.398;5.466;2022-12-18T12:54:58;25.43;;;15.90;;
9420;SDS011;4749;51.398;5.466;2022-12-18T12:57:33;29.23;;;16.63;;
9420;SDS011;4749;51.398;5.466;2022-12-18T13:00:10;25.20;;;15.23;;
9420;SDS011;4749;51.398;5.466;2022-12-18T13:02:50;24.77;;;14.97;;
9420;SDS011;4749;51.398;5.466;2022-12-18T13:05:51;24.77;;;14.97;;
9420;SDS011;4749;51.398;5.466;2022-12-18T13:08:53;28.37;;;16.30;;
9420;SDS011;4749;51.398;5.466;2022-12-18T13:11:43;28.30;;;16.43;;
9420;SDS011;4749;51.398;5.466;2022-12-18T13:14:36;24.47;;;15.67;;
9420;SDS011;4749;51.398;5.466;2022-12-18T13:19:50;28.57;;;15.97;;
9420;SDS011;4749;51.398;5.466;2022-12-18T13:22:46;27.57;;;15.90;;
9420;SDS011;4749;51.398;5.466;2022-12-18T13:40:53;24.23;;;15.60;;
9420;SDS011;4749;51.398;5.466;2022-12-18T13:45:50;25.73;;;15.93;;
9420;SDS011;4749;51.398;5.466;2022-12-18T13:48:49;24.00;;;14.77;;
9420;SDS011;4749;51.398;5.466;2022-12-18T13:51:26;24.83;;;15.57;;
9420;SDS011;4749;51.398;5.466;2022-12-18T13:54:00;25.27;;;15.33;;
9420;SDS011;4749;51.398;5.466;2022-12-18T13:57:00;28.50;;;15.20;;
9420;SDS011;4749;51.398;5.466;2022-12-18T13:59:35;27.23;;;15.27;;
9420;SDS011;4749;51.398;5.466;2022-12-18T14:02:21;26.07;;;15.23;;
9420;SDS011;4749;51.398;5.466;2022-12-18T14:04:54;25.93;;;15.30;;
9420;SDS011;4749;51.398;5.466;2022-12-18T14:07:22;24.97;;;15.43;;
9420;SDS011;4749;51.398;5.466;2022-12-18T14:10:11;26.47;;;15.37;;
9420;SDS011;4749;51.398;5.466;2022-12-18T14:13:06;27.03;;;15.80;;
9420;SDS011;4749;51.398;5.466;2022-12-18T14:15:41;28.13;;;15.57;;
9420;SDS011;4749;51.398;5.466;2022-12-18T14:18:19;25.60;;;15.13;;
9420;SDS011;4749;51.398;5.466;2022-12-18T14:21:17;26.13;;;15.57;;
9420;SDS011;4749;51.398;5.466;2022-12-18T14:23:48;27.87;;;16.73;;
9420;SDS011;4749;51.398;5.466;2022-12-18T14:26:29;28.03;;;16.10;;
9420;SDS011;4749;51.398;5.466;2022-12-18T14:32:12;26.70;;;15.50;;
9420;SDS011;4749;51.398;5.466;2022-12-18T14:34:47;24.93;;;14.77;;
9420;SDS011;4749;51.398;5.466;2022-12-18T14:37:21;27.53;;;16.70;;
9420;SDS011;4749;51.398;5.466;2022-12-18T14:39:57;31.50;;;16.37;;
9420;SDS011;4749;51.398;5.466;2022-12-18T14:42:36;33.53;;;17.47;;
9420;SDS011;4749;51.398;5.466;2022-12-18T14:50:39;29.97;;;17.50;;
9420;SDS011;4749;51.398;5.466;2022-12-18T14:53:17;29.77;;;17.23;;
9420;SDS011;4749;51.398;5.466;2022-12-18T14:55:47;28.83;;;17.03;;
9420;SDS011;4749;51.398;5.466;2022-12-18T14:58:15;32.10;;;17.73;;
9420;SDS011;4749;51.398;5.466;2022-12-18T15:00:43;28.57;;;16.53;;
9420;SDS011;4749;51.398;5.466;2022-12-18T15:03:12;27.80;;;17.30;;
9420;SDS011;4749;51.398;5.466;2022-12-18T15:05:46;27.70;;;15.70;;
9420;SDS011;4749;51.398;5.466;2022-12-18T15:08:31;24.90;;;15.47;;
9420;SDS011;4749;51.398;5.466;2022-12-18T15:11:03;28.47;;;15.90;;
9420;SDS011;4749;51.398;5.466;2022-12-18T15:13:53;29.87;;;17.13;;
9420;SDS011;4749;51.398;5.466;2022-12-18T15:16:20;27.03;;;16.23;;
9420;SDS011;4749;51.398;5.466;2022-12-18T15:18:48;28.40;;;16.90;;
9420;SDS011;4749;51.398;5.466;2022-12-18T15:21:17;27.67;;;16.63;;
9420;SDS011;4749;51.398;5.466;2022-12-18T15:23:50;29.87;;;17.13;;
9420;SDS011;4749;51.398;5.466;2022-12-18T15:26:27;28.37;;;16.67;;
9420;SDS011;4749;51.398;5.466;2022-12-18T15:29:04;29.17;;;17.43;;
9420;SDS011;4749;51.398;5.466;2022-12-18T15:31:38;29.50;;;18.03;;
9420;SDS011;4749;51.398;5.466;2022-12-18T15:34:10;32.13;;;17.87;;
9420;SDS011;4749;51.398;5.466;2022-12-18T15:36:50;30.77;;;17.73;;
9420;SDS011;4749;51.398;5.466;2022-12-18T15:39:17;31.83;;;18.30;;
9420;SDS011;4749;51.398;5.466;2022-12-18T15:42:30;30.27;;;17.73;;
9420;SDS011;4749;51.398;5.466;2022-12-18T15:45:19;29.30;;;17.20;;
9420;SDS011;4749;51.398;5.466;2022-12-18T15:47:49;27.53;;;16.40;;
9420;SDS011;4749;51.398;5.466;2022-12-18T15:50:29;26.53;;;16.37;;
9420;SDS011;4749;51.398;5.466;2022-12-18T15:53:27;28.47;;;17.43;;
9420;SDS011;4749;51.398;5.466;2022-12-18T15:56:01;29.23;;;17.30;;
9420;SDS011;4749;51.398;5.466;2022-12-18T15:58:50;32.27;;;18.17;;
9420;SDS011;4749;51.398;5.466;2022-12-18T16:01:21;30.37;;;18.60;;
9420;SDS011;4749;51.398;5.466;2022-12-18T16:04:11;29.33;;;17.33;;
9420;SDS011;4749;51.398;5.466;2022-12-18T16:06:40;30.53;;;17.63;;
9420;SDS011;4749;51.398;5.466;2022-12-18T16:09:33;27.23;;;17.20;;
9420;SDS011;4749;51.398;5.466;2022-12-18T16:12:00;28.03;;;16.63;;
9420;SDS011;4749;51.398;5.466;2022-12-18T16:14:29;31.60;;;17.57;;
9420;SDS011;4749;51.398;5.466;2022-12-18T16:17:05;30.80;;;17.97;;
9420;SDS011;4749;51.398;5.466;2022-12-18T16:19:37;31.57;;;17.07;;
9420;SDS011;4749;51.398;5.466;2022-12-18T16:22:05;30.37;;;17.63;;
9420;SDS011;4749;51.398;5.466;2022-12-18T16:24:47;29.80;;;17.70;;
9420;SDS011;4749;51.398;5.466;2022-12-18T16:27:15;25.90;;;16.60;;
9420;SDS011;4749;51.398;5.466;2022-12-18T16:29:46;27.73;;;16.57;;
9420;SDS011;4749;51.398;5.466;2022-12-18T16:32:17;33.37;;;18.67;;
9420;SDS011;4749;51.398;5.466;2022-12-18T16:34:46;30.57;;;17.40;;
9420;SDS011;4749;51.398;5.466;2022-12-18T16:37:14;31.17;;;16.97;;
9420;SDS011;4749;51.398;5.466;2022-12-18T16:40:23;25.63;;;15.53;;
9420;SDS011;4749;51.398;5.466;2022-12-18T16:50:27;28.67;;;16.17;;
9420;SDS011;4749;51.398;5.466;2022-12-18T16:52:55;30.13;;;18.33;;
9420;SDS011;4749;51.398;5.466;2022-12-18T16:55:22;29.53;;;17.87;;
9420;SDS011;4749;51.398;5.466;2022-12-18T16:57:52;31.70;;;19.07;;
9420;SDS011;4749;51.398;5.466;2022-12-18T17:00:42;29.73;;;17.83;;
9420;SDS011;4749;51.398;5.466;2022-12-18T17:03:10;29.43;;;16.73;;
9420;SDS011;4749;51.398;5.466;2022-12-18T17:05:38;30.23;;;17.40;;
9420;SDS011;4749;51.398;5.466;2022-12-18T17:08:18;30.80;;;17.37;;
9420;SDS011;4749;51.398;5.466;2022-12-18T17:10:45;31.50;;;18.87;;
9420;SDS011;4749;51.398;5.466;2022-12-18T17:13:12;32.07;;;18.23;;
9420;SDS011;4749;51.398;5.466;2022-12-18T17:15:39;32.30;;;17.90;;
9420;SDS011;4749;51.398;5.466;2022-12-18T17:18:07;29.47;;;17.87;;
9420;SDS011;4749;51.398;5.466;2022-12-18T17:20:34;28.90;;;17.03;;
9420;SDS011;4749;51.398;5.466;2022-12-18T17:23:03;31.47;;;18.00;;
9420;SDS011;4749;51.398;5.466;2022-12-18T17:25:30;28.70;;;17.07;;
9420;SDS011;4749;51.398;5.466;2022-12-18T17:27:58;29.97;;;17.33;;
9420;SDS011;4749;51.398;5.466;2022-12-18T17:30:25;28.20;;;16.67;;
9420;SDS011;4749;51.398;5.466;2022-12-18T17:32:52;28.00;;;17.07;;